Time;durP1;ratioP1;P1;durP2;ratioP2;P2;SDS_P1;SDS_P2;PMS_P1;PMS_P2;Temp;Humidity;BMP_temperature;BMP_pressure;BME280_temperature;BME280_humidity;BME280_pressure;Samples;Min_cycle;Max_cycle;Signal;HPM_P1;HPM_P2
2023/05/22 00:00:12;;;;;;;22.98;17.50;;;;;;;18.43;54.87;93297.06;4995518;28;20056;-94
2023/05/22 00:02:41;;;;;;;26.38;19.27;;;;;;;18.44;54.85;93298.56;4999704;28;20049;-95
2023/05/22 00:05:10;;;;;;;23.52;19.35;;;;;;;18.44;54.62;93290.34;4996866;28;20057;-95
2023/05/22 00:07:35;;;;;;;23.48;18.90;;;;;;;18.44;54.96;93295.81;4996429;28;20038;-95
2023/05/22 00:10:04;;;;;;;24.83;18.98;;;;;;;18.43;54.72;93295.06;4992418;28;20436;-94
2023/05/22 00:12:29;;;;;;;23.42;18.27;;;;;;;18.44;54.69;93291.09;4995859;28;20226;-94
2023/05/22 00:14:54;;;;;;;24.20;18.58;;;;;;;18.45;54.95;93291.84;4996089;28;20045;-95
2023/05/22 00:17:20;;;;;;;21.20;17.67;;;;;;;18.46;54.69;93291.31;4995002;28;20045;-94
2023/05/22 00:19:46;;;;;;;23.42;18.98;;;;;;;18.45;55.00;93287.09;4995676;28;20045;-94
2023/05/22 00:22:12;;;;;;;25.63;18.80;;;;;;;18.41;54.88;93288.63;4993931;28;20045;-94
2023/05/22 00:24:38;;;;;;;25.90;19.77;;;;;;;18.43;54.58;93288.88;4999241;28;20052;-95
2023/05/22 00:27:04;;;;;;;24.70;19.20;;;;;;;18.42;54.77;93284.66;5015135;28;20037;-94
2023/05/22 00:29:30;;;;;;;24.17;18.08;;;;;;;18.45;54.74;93286.34;5015093;28;20048;-95
2023/05/22 00:31:55;;;;;;;24.67;18.23;;;;;;;18.42;54.79;93288.13;5013835;28;20053;-95
2023/05/22 00:34:20;;;;;;;28.98;19.77;;;;;;;18.41;54.68;93286.63;4998433;28;20424;-95
2023/05/22 00:36:46;;;;;;;26.15;19.98;;;;;;;18.40;54.87;93274.22;4977916;28;20057;-94
2023/05/22 00:39:11;;;;;;;25.02;18.15;;;;;;;18.42;54.88;93281.91;4976919;28;20057;-95
2023/05/22 00:41:37;;;;;;;24.15;17.88;;;;;;;18.43;54.57;93286.13;4978530;28;20108;-94
2023/05/22 00:44:03;;;;;;;25.67;18.40;;;;;;;18.42;54.68;93282.66;4977399;28;20042;-95
2023/05/22 00:46:28;;;;;;;23.77;18.52;;;;;;;18.42;54.66;93281.91;4977148;28;20628;-94
2023/05/22 00:48:54;;;;;;;28.48;21.20;;;;;;;18.40;54.66;93284.44;4978615;28;20451;-94
2023/05/22 00:51:20;;;;;;;23.00;18.00;;;;;;;18.44;54.53;93285.63;4976762;28;20038;-94
2023/05/22 00:53:45;;;;;;;26.08;19.73;;;;;;;18.40;54.76;93276.22;4977885;28;20073;-94
2023/05/22 00:56:11;;;;;;;25.75;19.38;;;;;;;18.42;54.77;93281.91;4977142;28;20092;-95
2023/05/22 00:58:38;;;;;;;23.98;19.10;;;;;;;18.42;54.65;93268.22;4977873;28;20060;-95
2023/05/22 01:01:06;;;;;;;24.60;18.80;;;;;;;18.40;54.73;93282.41;4977154;28;20046;-95
2023/05/22 01:03:32;;;;;;;25.23;18.33;;;;;;;18.42;54.74;93274.44;4978067;28;20120;-95
2023/05/22 01:05:57;;;;;;;20.02;16.63;;;;;;;18.40;54.79;93276.22;4977982;28;20496;-95
2023/05/22 01:08:23;;;;;;;24.13;18.45;;;;;;;18.40;54.62;93274.22;4992961;28;20056;-94
2023/05/22 01:11:07;;;;;;;25.42;20.20;;;;;;;18.40;54.91;93263.25;4999739;28;20392;-94
2023/05/22 01:13:44;;;;;;;24.90;19.02;;;;;;;18.42;54.99;93276.44;4999084;28;20049;-94
2023/05/22 01:16:28;;;;;;;24.48;18.20;;;;;;;18.43;54.93;93273.19;5014135;28;20047;-94
2023/05/22 01:19:01;;;;;;;23.00;18.33;;;;;;;18.42;54.75;93270.97;5015090;28;20045;-93
2023/05/22 01:21:37;;;;;;;24.23;19.05;;;;;;;18.41;54.81;93272.22;4997372;28;20049;-94
2023/05/22 01:24:19;;;;;;;21.73;17.35;;;;;;;18.40;54.95;93276.94;4986277;28;20061;-95
2023/05/22 01:27:13;;;;;;;23.52;18.55;;;;;;;18.39;55.00;93272.75;5015071;28;20037;-94
2023/05/22 01:30:16;;;;;;;25.15;17.63;;;;;;;18.38;54.86;93268.53;5013677;28;20041;-95
2023/05/22 01:32:42;;;;;;;26.85;18.92;;;;;;;18.40;54.89;93266.00;5014248;28;20052;-95
2023/05/22 01:35:09;;;;;;;23.15;17.45;;;;;;;18.40;54.59;93274.22;4996841;28;20030;-95
2023/05/22 01:37:35;;;;;;;25.63;18.88;;;;;;;18.41;54.66;93272.22;5000685;28;20042;-95
2023/05/22 01:40:00;;;;;;;23.95;18.17;;;;;;;18.38;54.75;93265.06;5003822;28;20052;-94
2023/05/22 01:42:26;;;;;;;29.00;20.95;;;;;;;18.41;54.59;93262.00;4997146;28;20038;-94
2023/05/22 01:44:52;;;;;;;25.63;20.20;;;;;;;18.41;54.84;93255.78;4997619;28;20030;-95
2023/05/22 01:47:18;;;;;;;24.92;18.98;;;;;;;18.38;54.70;93263.06;4996194;28;20041;-94
2023/05/22 01:49:43;;;;;;;25.55;19.67;;;;;;;18.41;54.53;93258.53;4997438;28;20034;-95
2023/05/22 01:52:28;;;;;;;22.23;17.80;;;;;;;18.38;54.46;93254.84;4997104;28;20111;-95
2023/05/22 01:55:04;;;;;;;21.60;18.10;;;;;;;18.39;54.54;93258.31;5000330;28;20047;-94
2023/05/22 01:57:41;;;;;;;26.52;19.13;;;;;;;18.41;54.33;93250.31;4997008;28;20041;-96
2023/05/22 02:00:10;;;;;;;24.88;19.58;;;;;;;18.39;54.72;93258.31;4991920;28;20045;-95
2023/05/22 02:02:37;;;;;;;25.02;19.42;;;;;;;18.39;55.01;93247.38;5008469;28;20456;-95
2023/05/22 02:05:03;;;;;;;24.23;19.05;;;;;;;18.38;54.62;93243.91;4996714;28;20052;-95
2023/05/22 02:07:29;;;;;;;24.27;19.10;;;;;;;18.41;55.06;93244.84;4997001;28;20514;-95
2023/05/22 02:09:54;;;;;;;27.13;20.88;;;;;;;18.37;54.89;93241.69;4997461;28;20037;-94
2023/05/22 02:12:20;;;;;;;23.52;18.33;;;;;;;18.37;54.75;93241.69;4996062;28;20045;-94
2023/05/22 02:14:46;;;;;;;24.90;19.08;;;;;;;18.37;54.75;93247.88;5000510;28;20061;-94
2023/05/22 02:17:11;;;;;;;25.77;19.10;;;;;;;18.37;54.58;93245.16;4995890;28;20561;-95
2023/05/22 02:19:37;;;;;;;21.58;17.23;;;;;;;18.40;54.81;93235.88;4997133;28;20052;-95
2023/05/22 02:22:02;;;;;;;24.38;19.35;;;;;;;18.35;54.91;93242.19;4996561;28;20143;-95
2023/05/22 02:24:30;;;;;;;22.80;18.30;;;;;;;18.36;54.85;93240.94;4996819;28;20048;-95
2023/05/22 02:26:56;;;;;;;24.60;19.83;;;;;;;18.38;55.01;93237.69;4996977;28;20053;-95
2023/05/22 02:29:22;;;;;;;25.13;20.10;;;;;;;18.35;54.58;93239.44;4996913;28;21665;-95
2023/05/22 02:31:48;;;;;;;23.27;17.85;;;;;;;18.40;54.38;93235.19;4997252;28;20041;-95
2023/05/22 02:34:13;;;;;;;23.70;18.15;;;;;;;18.35;54.88;93233.25;4995186;28;20127;-95
2023/05/22 02:36:39;;;;;;;24.13;18.80;;;;;;;18.38;54.89;93232.22;4996948;28;20487;-94
2023/05/22 02:39:05;;;;;;;24.98;19.30;;;;;;;18.37;54.82;93233.47;5011159;28;20072;-95
2023/05/22 02:41:32;;;;;;;24.33;18.70;;;;;;;18.36;54.55;93229.25;4996304;28;20045;-94
2023/05/22 02:43:59;;;;;;;21.92;16.40;;;;;;;18.36;54.83;93232.72;4996316;28;20064;-96
2023/05/22 02:46:25;;;;;;;22.25;17.30;;;;;;;18.34;54.94;93223.53;4995948;28;20515;-94
2023/05/22 02:48:52;;;;;;;24.85;19.98;;;;;;;18.39;54.63;93222.75;4996666;28;20121;-95
2023/05/22 02:51:17;;;;;;;25.52;19.67;;;;;;;18.33;54.94;93231.00;4992121;28;20460;-94
2023/05/22 02:53:42;;;;;;;24.33;19.67;;;;;;;18.36;54.91;93223.78;5012932;28;20042;-95
2023/05/22 02:56:10;;;;;;;23.20;18.20;;;;;;;18.34;54.85;93229.75;5012620;28;20553;-95
2023/05/22 02:58:37;;;;;;;27.50;19.42;;;;;;;18.35;54.50;93230.50;4996278;28;20042;-96
2023/05/22 03:01:05;;;;;;;23.20;18.92;;;;;;;18.35;54.88;93227.75;4998986;28;20499;-93
2023/05/22 03:03:31;;;;;;;24.88;18.60;;;;;;;18.36;54.59;93223.78;5003845;28;20148;-94
2023/05/22 03:06:00;;;;;;;25.45;19.40;;;;;;;18.34;54.65;93224.28;4992799;28;20117;-94
2023/05/22 03:08:27;;;;;;;23.63;17.48;;;;;;;18.36;54.72;93224.50;5028145;28;20042;-94
2023/05/22 03:10:53;;;;;;;20.15;16.75;;;;;;;18.34;54.71;93229.75;4995660;28;20045;-95
2023/05/22 03:13:19;;;;;;;24.98;18.40;;;;;;;18.35;54.75;93233.25;4993226;28;20050;-95
2023/05/22 03:15:44;;;;;;;23.38;18.90;;;;;;;18.36;54.43;93224.50;4996204;28;20518;-94
2023/05/22 03:18:10;;;;;;;22.80;18.27;;;;;;;18.32;54.81;93229.53;4995709;28;20049;-94
2023/05/22 03:20:35;;;;;;;19.92;16.83;;;;;;;18.34;54.73;93223.53;4995404;28;20038;-94
2023/05/22 03:23:01;;;;;;;26.27;20.13;;;;;;;18.31;54.86;93222.56;4995749;28;20052;-94
2023/05/22 03:25:26;;;;;;;31.27;19.50;;;;;;;18.32;54.80;93224.06;4993014;28;20049;-93
2023/05/22 03:27:52;;;;;;;22.25;16.42;;;;;;;18.31;54.68;93219.09;4995316;28;20063;-93
2023/05/22 03:30:17;;;;;;;20.52;17.13;;;;;;;18.36;54.67;93227.25;4995836;28;20029;-94
2023/05/22 03:32:42;;;;;;;23.27;17.65;;;;;;;18.38;54.42;93215.78;4996051;28;20033;-91
2023/05/22 03:35:09;;;;;;;28.00;20.45;;;;;;;18.43;54.33;93215.72;4991460;28;20508;-91
2023/05/22 03:37:35;;;;;;;28.05;21.00;;;;;;;18.45;54.41;93218.66;4989250;28;20041;-92
2023/05/22 03:40:02;;;;;;;32.97;23.27;;;;;;;18.45;54.26;93212.47;5003880;28;20054;-94
2023/05/22 03:42:28;;;;;;;123.22;78.93;;;;;;;18.47;54.21;93212.69;5009043;28;20045;-90
2023/05/22 03:44:54;;;;;;;28.75;18.55;;;;;;;18.55;53.85;93208.13;4989476;28;20033;-92
2023/05/22 03:47:19;;;;;;;28.15;21.05;;;;;;;18.54;54.39;93206.63;5017644;28;20038;-92
2023/05/22 03:49:45;;;;;;;34.33;22.02;;;;;;;18.52;54.26;93217.34;4996287;28;20296;-91
2023/05/22 03:52:11;;;;;;;25.73;19.02;;;;;;;18.56;54.21;93208.84;4995970;28;20045;-91
2023/05/22 03:54:36;;;;;;;39.28;21.95;;;;;;;18.54;53.92;93211.38;4998657;28;20045;-90
2023/05/22 03:57:03;;;;;;;40.65;23.10;;;;;;;18.49;54.00;93215.66;4989310;28;20030;-95
2023/05/22 03:59:28;;;;;;;41.97;18.58;;;;;;;18.58;53.44;93215.31;5027763;28;20156;-89
2023/05/22 04:01:56;;;;;;;63.50;21.42;;;;;;;18.54;53.37;93208.63;5035108;28;20411;-89
2023/05/22 04:04:26;;;;;;;79.30;30.27;;;;;;;18.56;53.16;93211.59;4996685;28;20081;-90
2023/05/22 04:06:51;;;;;;;91.82;26.75;;;;;;;18.47;53.08;93216.16;5009889;28;20412;-90
2023/05/22 04:09:17;;;;;;;63.95;20.17;;;;;;;18.45;53.18;93221.41;5006049;28;20133;-90
2023/05/22 04:11:42;;;;;;;68.25;18.80;;;;;;;18.46;52.85;93222.88;5045986;28;20046;-89
2023/05/22 04:14:08;;;;;;;71.90;20.33;;;;;;;18.35;53.77;93222.28;5013219;28;20079;-90
2023/05/22 04:16:33;;;;;;;64.47;19.55;;;;;;;18.36;53.36;93227.25;4997837;28;20120;-90
2023/05/22 04:19:01;;;;;;;66.80;26.05;;;;;;;18.38;53.16;93219.28;5018152;28;20053;-92
2023/05/22 04:21:27;;;;;;;79.07;28.92;;;;;;;18.38;53.04;93222.00;5015084;28;20049;-89
2023/05/22 04:23:52;;;;;;;53.45;22.05;;;;;;;18.34;53.29;93218.81;5018239;28;20068;-88
2023/05/22 04:26:19;;;;;;;67.22;24.23;;;;;;;18.30;53.29;93226.56;5000865;28;20053;-89
2023/05/22 04:28:46;;;;;;;72.65;25.33;;;;;;;18.29;53.23;93221.59;5008211;28;20045;-91
2023/05/22 04:31:12;;;;;;;56.08;20.48;;;;;;;18.30;53.63;93223.09;5001412;28;20034;-90
2023/05/22 04:33:38;;;;;;;40.67;19.63;;;;;;;18.27;53.36;93227.59;4997069;28;20108;-88
2023/05/22 04:36:05;;;;;;;33.83;15.75;;;;;;;18.31;53.46;93221.84;5012149;28;20049;-88
2023/05/22 04:38:35;;;;;;;35.58;15.63;;;;;;;18.31;53.14;93221.84;5005253;28;20053;-91
2023/05/22 04:41:02;;;;;;;29.67;15.88;;;;;;;18.30;53.53;93225.81;5003474;28;20113;-91
2023/05/22 04:43:31;;;;;;;29.42;13.88;;;;;;;18.25;53.27;93224.63;5005102;28;20172;-90
2023/05/22 04:45:56;;;;;;;35.20;14.85;;;;;;;18.33;53.13;93214.59;5034887;28;20038;-91
2023/05/22 04:48:22;;;;;;;26.33;13.15;;;;;;;18.29;53.37;93224.34;5002181;28;20114;-91
2023/05/22 04:50:48;;;;;;;41.50;16.90;;;;;;;18.29;53.60;93224.34;5002078;28;20487;-93
2023/05/22 04:53:15;;;;;;;29.10;14.13;;;;;;;18.33;53.78;93227.53;5007739;28;20034;-92
2023/05/22 04:55:40;;;;;;;28.00;16.38;;;;;;;18.26;53.72;93219.91;5001103;28;20057;-90
2023/05/22 04:58:07;;;;;;;33.22;16.02;;;;;;;18.17;53.76;93214.78;4993264;28;20075;-93
2023/05/22 05:00:34;;;;;;;28.10;13.80;;;;;;;18.20;53.96;93217.22;4998659;28;20041;-91
2023/05/22 05:02:59;;;;;;;36.42;14.82;;;;;;;18.22;54.06;93211.97;4995453;28;20041;-89
2023/05/22 05:05:24;;;;;;;30.98;13.93;;;;;;;18.24;54.08;93209.47;5012288;28;20048;-91
2023/05/22 05:07:50;;;;;;;45.30;19.55;;;;;;;18.17;54.24;93207.31;5009100;28;20030;-90
2023/05/22 05:10:16;;;;;;;63.10;21.60;;;;;;;18.25;54.06;93202.72;4996008;28;20503;-90
2023/05/22 05:12:41;;;;;;;46.70;18.55;;;;;;;18.34;54.25;93210.59;4985131;28;20496;-89
2023/05/22 05:15:07;;;;;;;32.10;16.40;;;;;;;18.28;53.91;93211.91;5017131;28;20038;-88
2023/05/22 05:17:32;;;;;;;46.95;17.13;;;;;;;18.34;54.23;93205.13;5047201;28;20050;-90
2023/05/22 05:19:58;;;;;;;32.38;18.15;;;;;;;18.37;53.70;93217.03;5019177;28;20418;-91
2023/05/22 05:22:25;;;;;;;34.03;14.77;;;;;;;18.35;54.00;93219.56;5032406;28;20041;-91
2023/05/22 05:24:53;;;;;;;28.08;15.13;;;;;;;18.29;54.06;93219.63;5014797;28;20068;-91
2023/05/22 05:27:19;;;;;;;44.78;18.85;;;;;;;18.32;54.38;93213.13;4997196;28;20100;-89
2023/05/22 05:29:45;;;;;;;55.47;20.20;;;;;;;18.43;54.10;93210.22;5013892;28;20041;-92
2023/05/22 05:32:13;;;;;;;44.47;16.52;;;;;;;18.41;53.83;93214.75;4997128;28;20045;-92
2023/05/22 05:34:38;;;;;;;60.03;22.80;;;;;;;18.45;53.92;93213.19;5013965;28;20048;-90
2023/05/22 05:37:04;;;;;;;136.65;40.58;;;;;;;18.40;54.08;93216.03;5008889;28;20049;-89
2023/05/22 05:39:29;;;;;;;64.93;24.23;;;;;;;18.44;54.18;93211.72;5012798;28;20087;-90
2023/05/22 05:41:55;;;;;;;59.30;23.02;;;;;;;18.47;54.27;93210.69;5004620;28;20049;-91
2023/05/22 05:44:22;;;;;;;66.28;26.23;;;;;;;18.48;54.36;93212.16;4996481;28;20048;-90
2023/05/22 05:46:47;;;;;;;67.05;30.85;;;;;;;18.52;54.45;93220.09;4996978;28;20034;-90
2023/05/22 05:49:13;;;;;;;96.00;41.55;;;;;;;18.48;54.34;93212.16;5008784;28;20041;-88
2023/05/22 05:51:38;;;;;;;104.82;45.90;;;;;;;18.50;54.46;93209.66;5036587;28;20510;-89
2023/05/22 05:54:04;;;;;;;119.00;47.65;;;;;;;18.53;54.14;93210.63;5005056;28;20090;-92
2023/05/22 05:56:29;;;;;;;173.68;69.18;;;;;;;18.58;54.22;93211.81;4991193;28;20404;-90
2023/05/22 05:58:55;;;;;;;164.45;74.20;;;;;;;18.66;54.20;93210.72;5025772;28;20042;-93
2023/05/22 06:01:24;;;;;;;99.80;47.55;;;;;;;18.67;54.25;93217.69;4997737;28;20041;-88
2023/05/22 06:03:50;;;;;;;100.35;52.72;;;;;;;18.68;54.12;93215.69;5015390;28;20517;-90
2023/05/22 06:06:16;;;;;;;72.40;34.10;;;;;;;18.71;54.20;93209.19;5017104;28;20044;-91
2023/05/22 06:08:42;;;;;;;68.53;32.65;;;;;;;18.77;53.70;93207.88;5015839;28;20175;-92
2023/05/22 06:11:08;;;;;;;79.10;37.28;;;;;;;18.80;53.54;93212.31;4997099;28;20045;-90
2023/05/22 06:13:33;;;;;;;81.70;33.85;;;;;;;18.81;53.79;93218.53;4996204;28;20052;-89
2023/05/22 06:15:59;;;;;;;86.85;38.03;;;;;;;18.76;53.52;93214.59;5014955;28;20045;-92
2023/05/22 06:18:24;;;;;;;56.50;29.17;;;;;;;18.78;53.84;93200.38;4987641;28;20563;-93
2023/05/22 06:20:51;;;;;;;54.03;29.25;;;;;;;18.84;53.32;93204.50;4998009;28;20642;-94
2023/05/22 06:23:17;;;;;;;47.40;26.13;;;;;;;18.83;53.62;93208.53;4993089;28;20044;-93
2023/05/22 06:25:45;;;;;;;48.55;24.23;;;;;;;18.81;53.84;93202.09;5017408;28;20075;-94
2023/05/22 06:28:10;;;;;;;84.63;29.77;;;;;;;18.84;53.70;93207.25;5025809;28;20029;-92
2023/05/22 06:30:37;;;;;;;128.00;34.80;;;;;;;18.89;53.35;93194.75;4994005;28;20056;-93
2023/05/22 06:33:03;;;;;;;109.03;28.85;;;;;;;18.94;53.64;93198.69;4973004;28;20125;-92
2023/05/22 06:35:29;;;;;;;76.25;22.85;;;;;;;19.04;52.63;93197.78;4971579;28;20489;-92
2023/05/22 06:37:56;;;;;;;87.97;24.70;;;;;;;18.97;52.74;93198.38;4985948;28;20102;-92
2023/05/22 06:40:22;;;;;;;81.90;22.45;;;;;;;18.99;52.95;93198.59;4985986;28;20045;-91
2023/05/22 06:42:47;;;;;;;64.55;18.67;;;;;;;19.03;52.98;93193.56;4963815;28;20048;-94
2023/05/22 06:45:13;;;;;;;45.25;16.48;;;;;;;19.10;52.77;93192.94;4986967;28;20443;-91
2023/05/22 06:47:39;;;;;;;65.93;25.10;;;;;;;19.15;52.40;93202.34;4987150;28;20030;-89
2023/05/22 06:50:06;;;;;;;61.55;27.45;;;;;;;19.14;52.40;93195.41;5016121;28;20116;-93
2023/05/22 06:52:33;;;;;;;41.67;20.65;;;;;;;19.18;52.31;93204.06;4980557;28;20049;-91
2023/05/22 06:55:13;;;;;;;71.40;29.25;;;;;;;19.20;52.49;93196.06;4966059;28;20038;-94
2023/05/22 06:57:38;;;;;;;46.57;19.10;;;;;;;19.21;52.07;93197.53;5008065;28;20104;-95
2023/05/22 07:00:14;;;;;;;70.28;27.60;;;;;;;19.23;52.02;93200.50;4988100;28;20038;-92
2023/05/22 07:02:50;;;;;;;81.72;30.05;;;;;;;19.20;52.14;93204.28;4957782;28;20520;-95
2023/05/22 07:05:17;;;;;;;88.93;31.67;;;;;;;19.22;52.16;93199.03;5007265;28;20045;-94
2023/05/22 07:07:43;;;;;;;83.10;35.80;;;;;;;19.32;51.41;93197.34;5002134;28;20045;-91
2023/05/22 07:10:36;;;;;;;98.05;37.67;;;;;;;19.28;51.60;93193.44;4997301;28;20045;-94
2023/05/22 07:13:01;;;;;;;97.78;41.90;;;;;;;19.30;51.37;93202.63;5007484;28;20045;-91
2023/05/22 07:15:27;;;;;;;122.70;54.03;;;;;;;19.32;51.54;93204.84;4979463;28;20041;-91
2023/05/22 07:17:54;;;;;;;124.72;46.63;;;;;;;19.31;51.02;93201.34;5021841;28;20042;-90
2023/05/22 07:20:29;;;;;;;159.20;74.00;;;;;;;19.36;50.87;93188.84;4998279;28;20042;-90
2023/05/22 07:22:57;;;;;;;138.35;55.25;;;;;;;19.35;51.10;93199.06;5000322;28;20504;-91
2023/05/22 07:25:24;;;;;;;122.00;51.47;;;;;;;19.37;50.99;93190.31;4986208;28;20058;-90
2023/05/22 07:27:49;;;;;;;134.45;48.38;;;;;;;19.33;50.83;93189.88;5001482;28;20535;-90
2023/05/22 07:30:15;;;;;;;162.48;74.93;;;;;;;19.31;51.02;93190.41;4994040;28;20049;-94
2023/05/22 07:32:40;;;;;;;159.70;66.47;;;;;;;19.39;50.99;93198.75;4987793;28;20038;-90
2023/05/22 07:36:03;;;;;;;155.15;59.45;;;;;;;19.36;51.25;93195.06;4993134;28;20041;-92
2023/05/22 07:38:30;;;;;;;123.97;51.05;;;;;;;19.36;50.94;93199.78;5034976;28;20116;-91
2023/05/22 07:40:55;;;;;;;107.25;45.72;;;;;;;19.33;50.77;93195.34;5002582;28;20042;-90
2023/05/22 07:43:21;;;;;;;103.25;45.78;;;;;;;19.31;51.21;93201.34;5021018;28;20054;-91
2023/05/22 07:45:47;;;;;;;99.97;46.63;;;;;;;19.34;50.95;93202.31;5003298;28;20034;-91
2023/05/22 07:48:12;;;;;;;134.75;60.35;;;;;;;19.35;50.84;93203.81;5013381;28;20099;-92
2023/05/22 07:50:38;;;;;;;122.55;59.38;;;;;;;19.36;50.96;93205.28;4991011;28;20048;-92
2023/05/22 07:53:05;;;;;;;147.85;63.38;;;;;;;19.41;50.75;93196.97;4999780;28;20506;-92
2023/05/22 07:55:30;;;;;;;127.80;53.42;;;;;;;19.43;51.17;93207.41;4998817;28;20096;-92
2023/05/22 07:57:58;;;;;;;138.18;57.35;;;;;;;19.44;50.76;93208.91;5016587;28;20491;-92
2023/05/22 08:00:24;;;;;;;135.95;53.58;;;;;;;19.41;51.07;93196.97;5002136;28;20099;-90
2023/05/22 08:02:50;;;;;;;111.05;42.92;;;;;;;19.49;50.74;93202.56;5003717;28;20057;-91
2023/05/22 08:05:26;;;;;;;94.65;45.80;;;;;;;19.55;50.45;93191.56;5009041;28;20045;-93
2023/05/22 08:07:53;;;;;;;88.00;42.38;;;;;;;19.59;50.49;93195.47;5007534;28;20041;-93
2023/05/22 08:10:19;;;;;;;94.60;38.85;;;;;;;19.60;50.63;93201.69;5004887;28;20112;-91
2023/05/22 08:12:44;;;;;;;85.47;40.85;;;;;;;19.69;50.31;93188.34;5010311;28;20034;-90
2023/05/22 08:15:10;;;;;;;122.70;53.22;;;;;;;19.72;50.19;93192.00;5014195;28;20047;-89
2023/05/22 08:17:36;;;;;;;124.80;63.65;;;;;;;19.75;50.07;93201.94;5017460;28;20503;-90
2023/05/22 08:20:07;;;;;;;106.50;53.90;;;;;;;19.72;50.14;93192.75;5018184;28;20046;-89
2023/05/22 08:22:43;;;;;;;165.18;83.10;;;;;;;19.75;49.80;93188.94;5004762;28;20560;-93
2023/05/22 08:26:10;;;;;;;149.70;76.35;;;;;;;19.73;50.32;93202.44;5015839;28;20076;-94
2023/05/22 08:28:40;;;;;;;170.55;82.22;;;;;;;19.81;50.08;93205.31;4968436;28;20042;-93
2023/05/22 08:31:06;;;;;;;154.65;83.40;;;;;;;19.83;49.98;93203.53;4969895;28;20543;-88
2023/05/22 08:33:31;;;;;;;185.82;89.07;;;;;;;19.83;49.85;93197.31;4950122;28;20035;-89
2023/05/22 08:35:58;;;;;;;181.65;87.18;;;;;;;19.85;49.86;93187.28;4931806;28;20171;-88
2023/05/22 08:38:23;;;;;;;154.35;74.20;;;;;;;19.86;50.04;93190.78;4967765;28;20044;-86
2023/05/22 08:40:54;;;;;;;121.05;63.17;;;;;;;19.87;50.15;93189.50;4936159;28;20034;-89
2023/05/22 08:43:21;;;;;;;144.27;71.47;;;;;;;19.82;50.28;93185.59;4940241;28;20073;-88
2023/05/22 08:45:51;;;;;;;170.88;78.82;;;;;;;19.76;50.20;93203.41;4944044;28;20098;-88
2023/05/22 08:48:16;;;;;;;135.40;67.80;;;;;;;19.72;50.51;93197.50;4938944;28;20055;-86
2023/05/22 08:50:45;;;;;;;132.50;63.70;;;;;;;19.76;50.39;93198.66;4950898;28;20051;-86
2023/05/22 08:53:13;;;;;;;137.75;60.75;;;;;;;19.78;50.34;93200.88;4956157;28;20055;-85
2023/05/22 08:55:39;;;;;;;155.18;59.83;;;;;;;19.77;50.35;93194.66;4956851;28;20138;-87
2023/05/22 08:58:04;;;;;;;162.50;67.85;;;;;;;19.74;50.58;93195.69;4953149;28;20452;-85
2023/05/22 09:00:31;;;;;;;153.65;60.50;;;;;;;19.73;50.45;93199.72;4952427;28;20483;-87
2023/05/22 09:02:58;;;;;;;144.02;61.58;;;;;;;19.73;50.73;93196.97;5000195;28;20045;-88
2023/05/22 09:05:27;;;;;;;186.07;66.03;;;;;;;19.78;50.80;93192.66;4995069;28;20099;-88
2023/05/22 09:07:58;;;;;;;158.82;60.95;;;;;;;19.71;50.93;93204.22;4993985;28;20045;-87
2023/05/22 09:10:24;;;;;;;141.57;54.22;;;;;;;19.71;50.86;93194.00;5012624;28;20088;-88
2023/05/22 09:13:02;;;;;;;141.88;55.05;;;;;;;19.66;50.83;93186.63;5011091;28;20462;-86
2023/05/22 09:15:29;;;;;;;137.07;56.58;;;;;;;19.66;50.93;93197.59;5025139;28;20072;-87
2023/05/22 09:17:55;;;;;;;114.35;52.40;;;;;;;19.69;50.74;93190.34;4994734;28;20119;-86
2023/05/22 09:20:20;;;;;;;147.52;57.88;;;;;;;19.71;51.05;93202.22;5011549;28;20065;-87
2023/05/22 09:22:46;;;;;;;120.85;50.58;;;;;;;19.70;51.14;93191.81;5025783;28;20045;-87
2023/05/22 09:25:16;;;;;;;123.35;55.25;;;;;;;19.72;50.93;93200.22;5004526;28;20049;-87
2023/05/22 09:27:45;;;;;;;115.93;52.00;;;;;;;19.72;50.99;93195.47;5027163;28;20038;-86
2023/05/22 09:30:11;;;;;;;101.03;47.40;;;;;;;19.77;50.92;93200.13;4996378;28;20342;-89
2023/05/22 09:32:37;;;;;;;139.07;64.75;;;;;;;19.79;50.80;93194.88;4999548;28;20088;-87
2023/05/22 09:35:03;;;;;;;160.52;65.38;;;;;;;19.79;50.83;93196.88;5009321;28;20065;-87
2023/05/22 09:37:32;;;;;;;148.35;63.97;;;;;;;19.82;50.66;93199.31;5004467;28;20106;-88
2023/05/22 09:39:57;;;;;;;132.00;63.10;;;;;;;19.87;50.58;93202.50;4995798;28;20143;-89
2023/05/22 09:42:23;;;;;;;165.40;78.40;;;;;;;19.84;50.78;93194.03;5005447;28;20480;-86
2023/05/22 09:44:49;;;;;;;234.05;83.90;;;;;;;19.78;51.01;93195.41;4992823;28;20068;-87
2023/05/22 09:47:14;;;;;;;188.43;72.60;;;;;;;19.78;50.64;93198.88;4991847;28;20084;-87
2023/05/22 09:49:40;;;;;;;160.57;65.78;;;;;;;19.79;50.61;93203.09;5009250;28;20045;-87
2023/05/22 09:52:07;;;;;;;156.02;60.80;;;;;;;19.86;50.40;93196.25;4992880;28;20045;-87
2023/05/22 09:54:32;;;;;;;184.43;70.63;;;;;;;19.83;50.57;93200.78;5026149;28;20041;-86
2023/05/22 09:56:58;;;;;;;234.63;107.20;;;;;;;19.83;50.60;93197.31;5013732;28;20045;-87
2023/05/22 09:59:26;;;;;;;259.27;122.05;;;;;;;19.90;50.61;93196.69;5005376;28;20050;-86
2023/05/22 10:01:53;;;;;;;224.32;107.82;;;;;;;19.83;50.54;93189.09;5014279;28;20124;-87
2023/05/22 10:04:19;;;;;;;210.20;96.18;;;;;;;19.87;50.67;93192.25;5032073;28;20052;-87
2023/05/22 10:06:47;;;;;;;183.90;90.47;;;;;;;19.87;50.43;93195.00;5020139;28;20495;-89
2023/05/22 10:09:15;;;;;;;199.05;91.70;;;;;;;19.88;50.55;93184.78;5003090;28;20105;-90
2023/05/22 10:11:41;;;;;;;203.68;92.15;;;;;;;19.80;50.76;93196.34;5016148;28;20050;-88
2023/05/22 10:14:06;;;;;;;167.23;88.43;;;;;;;19.84;50.47;93194.03;5030112;28;20058;-86
2023/05/22 10:16:32;;;;;;;293.15;212.35;;;;;;;19.88;50.66;93188.25;5012924;28;20038;-89
2023/05/22 10:18:58;;;;;;;149.93;76.90;;;;;;;19.84;50.64;93188.56;5001156;28;20095;-86
2023/05/22 10:21:24;;;;;;;111.82;59.47;;;;;;;19.91;50.54;93187.19;5018483;28;20037;-88
2023/05/22 10:23:50;;;;;;;231.18;151.27;;;;;;;19.90;50.43;93185.00;5015809;28;20064;-86
2023/05/22 10:26:15;;;;;;;177.00;121.00;;;;;;;19.88;50.38;93184.78;5017828;28;20061;-86
2023/05/22 10:28:42;;;;;;;170.35;109.00;;;;;;;19.90;50.23;93182.97;5019444;28;20045;-87
2023/05/22 10:31:13;;;;;;;126.30;65.38;;;;;;;19.90;50.11;93182.97;5018291;28;20076;-86
2023/05/22 10:33:41;;;;;;;108.10;62.78;;;;;;;19.90;50.14;93179.50;5036383;28;20557;-87
2023/05/22 10:36:07;;;;;;;91.80;50.03;;;;;;;19.88;50.11;93176.53;5015306;28;20057;-85
2023/05/22 10:38:54;;;;;;;72.75;42.78;;;;;;;19.88;50.30;93187.50;4991455;28;20041;-86
2023/05/22 10:41:20;;;;;;;77.97;43.35;;;;;;;19.89;50.51;93178.75;5033229;28;20045;-86
2023/05/22 10:43:47;;;;;;;71.90;42.72;;;;;;;19.88;50.17;93169.06;5011012;28;20041;-88
2023/05/22 10:46:13;;;;;;;66.00;39.47;;;;;;;19.90;49.97;93172.00;4993265;28;20049;-87
2023/05/22 10:48:39;;;;;;;70.13;41.50;;;;;;;19.89;50.08;93165.03;5010637;28;20048;-87
2023/05/22 10:51:07;;;;;;;69.32;39.38;;;;;;;19.83;50.08;93175.38;5009800;28;20076;-87
2023/05/22 10:53:33;;;;;;;76.07;42.65;;;;;;;19.79;50.35;93175.69;4993111;28;20037;-87
2023/05/22 10:56:02;;;;;;;92.88;48.83;;;;;;;19.80;50.19;93168.94;5008093;28;20047;-88
2023/05/22 10:58:30;;;;;;;157.15;84.10;;;;;;;19.85;49.97;93173.59;5011025;28;20052;-87
2023/05/22 11:01:11;;;;;;;203.95;95.22;;;;;;;19.88;49.97;93171.06;4994392;28;20152;-87
2023/05/22 11:04:07;;;;;;;217.25;101.43;;;;;;;19.88;50.17;93160.81;5029054;28;20049;-87
2023/05/22 11:06:47;;;;;;;258.25;122.38;;;;;;;19.91;50.10;93161.78;5020011;28;20041;-85
2023/05/22 11:09:29;;;;;;;229.60;92.80;;;;;;;19.88;50.15;93166.31;5037932;28;20116;-88
2023/05/22 11:12:16;;;;;;;330.38;110.43;;;;;;;19.82;50.31;93160.19;4989935;28;20282;-87
2023/05/22 11:14:55;;;;;;;297.38;122.03;;;;;;;19.83;50.40;93158.91;5021542;28;20049;-87
2023/05/22 11:17:25;;;;;;;305.95;156.48;;;;;;;19.85;50.13;93148.16;5009508;28;20042;-86